sensor_id;sensor_type;location;lat;lon;timestamp;temperature;humidity
1049;DHT22;513;51.444;7.196;2023-04-10T00:00:10;7.60;99.90
1049;DHT22;513;51.444;7.196;2023-04-10T00:02:37;7.50;99.90
1049;DHT22;513;51.444;7.196;2023-04-10T00:05:04;7.50;99.90
1049;DHT22;513;51.444;7.196;2023-04-10T00:07:31;7.40;99.90
1049;DHT22;513;51.444;7.196;2023-04-10T00:09:58;7.50;99.90
1049;DHT22;513;51.444;7.196;2023-04-10T00:12:24;7.40;99.90
1049;DHT22;513;51.444;7.196;2023-04-10T00:14:51;7.40;99.90
1049;DHT22;513;51.444;7.196;2023-04-10T00:17:19;7.40;99.90
1049;DHT22;513;51.444;7.196;2023-04-10T00:19:45;7.40;99.90
1049;DHT22;513;51.444;7.196;2023-04-10T00:22:12;7.40;99.90
1049;DHT22;513;51.444;7.196;2023-04-10T00:24:38;7.40;99.90
1049;DHT22;513;51.444;7.196;2023-04-10T00:27:05;7.30;99.90
1049;DHT22;513;51.444;7.196;2023-04-10T00:29:31;7.30;99.90
1049;DHT22;513;51.444;7.196;2023-04-10T00:31:58;7.30;99.90
1049;DHT22;513;51.444;7.196;2023-04-10T00:34:26;7.30;99.90
1049;DHT22;513;51.444;7.196;2023-04-10T00:36:52;7.30;99.90
1049;DHT22;513;51.444;7.196;2023-04-10T00:39:19;7.30;99.90
1049;DHT22;513;51.444;7.196;2023-04-10T00:41:45;7.30;99.90
1049;DHT22;513;51.444;7.196;2023-04-10T00:44:12;7.30;99.90
1049;DHT22;513;51.444;7.196;2023-04-10T00:46:38;7.30;99.90
1049;DHT22;513;51.444;7.196;2023-04-10T00:49:05;7.40;99.90
1049;DHT22;513;51.444;7.196;2023-04-10T00:51:35;7.40;99.90
1049;DHT22;513;51.444;7.196;2023-04-10T00:54:01;7.40;99.90
1049;DHT22;513;51.444;7.196;2023-04-10T00:56:29;7.40;99.90
1049;DHT22;513;51.444;7.196;2023-04-10T00:58:56;7.40;99.90
1049;DHT22;513;51.444;7.196;2023-04-10T01:01:22;7.30;99.90
1049;DHT22;513;51.444;7.196;2023-04-10T01:03:49;7.30;99.90
1049;DHT22;513;51.444;7.196;2023-04-10T01:06:17;7.30;99.90
1049;DHT22;513;51.444;7.196;2023-04-10T01:08:50;7.30;99.90
1049;DHT22;513;51.444;7.196;2023-04-10T01:11:22;7.30;99.90
1049;DHT22;513;51.444;7.196;2023-04-10T01:13:52;7.30;99.90
1049;DHT22;513;51.444;7.196;2023-04-10T01:16:23;7.30;99.90
1049;DHT22;513;51.444;7.196;2023-04-10T01:18:52;7.30;99.90
1049;DHT22;513;51.444;7.196;2023-04-10T01:21:22;7.30;99.90
1049;DHT22;513;51.444;7.196;2023-04-10T01:23:57;7.30;99.90
1049;DHT22;513;51.444;7.196;2023-04-10T01:26:35;7.30;99.90
1049;DHT22;513;51.444;7.196;2023-04-10T01:29:06;7.30;99.90
1049;DHT22;513;51.444;7.196;2023-04-10T01:31:35;7.30;99.90
1049;DHT22;513;51.444;7.196;2023-04-10T01:34:04;7.30;1.00
1049;DHT22;513;51.444;7.196;2023-04-10T01:36:33;7.30;99.90
1049;DHT22;513;51.444;7.196;2023-04-10T01:39:01;7.30;1.00
1049;DHT22;513;51.444;7.196;2023-04-10T01:41:28;7.20;1.00
1049;DHT22;513;51.444;7.196;2023-04-10T01:43:56;7.20;1.00
1049;DHT22;513;51.444;7.196;2023-04-10T01:46:24;7.20;1.00
1049;DHT22;513;51.444;7.196;2023-04-10T01:48:52;7.10;1.00
1049;DHT22;513;51.444;7.196;2023-04-10T01:51:18;7.10;1.00
1049;DHT22;513;51.444;7.196;2023-04-10T01:53:45;7.10;1.00
1049;DHT22;513;51.444;7.196;2023-04-10T01:56:13;7.10;1.00
1049;DHT22;513;51.444;7.196;2023-04-10T01:58:40;7.10;1.00
1049;DHT22;513;51.444;7.196;2023-04-10T02:01:07;7.10;1.00
1049;DHT22;513;51.444;7.196;2023-04-10T02:03:35;7.10;1.00
1049;DHT22;513;51.444;7.196;2023-04-10T02:06:06;7.20;1.00
1049;DHT22;513;51.444;7.196;2023-04-10T02:08:36;7.20;1.00
1049;DHT22;513;51.444;7.196;2023-04-10T02:11:07;7.20;1.00
1049;DHT22;513;51.444;7.196;2023-04-10T02:13:35;7.20;99.90
1049;DHT22;513;51.444;7.196;2023-04-10T02:16:05;7.20;99.90
1049;DHT22;513;51.444;7.196;2023-04-10T02:18:33;7.30;99.90
1049;DHT22;513;51.444;7.196;2023-04-10T02:21:01;7.30;99.90
1049;DHT22;513;51.444;7.196;2023-04-10T02:23:28;7.40;99.90
1049;DHT22;513;51.444;7.196;2023-04-10T02:25:54;7.50;99.90
1049;DHT22;513;51.444;7.196;2023-04-10T02:28:22;7.50;99.90
1049;DHT22;513;51.444;7.196;2023-04-10T02:30:49;7.50;99.90
1049;DHT22;513;51.444;7.196;2023-04-10T02:33:15;7.50;99.90
1049;DHT22;513;51.444;7.196;2023-04-10T02:35:42;7.50;99.90
1049;DHT22;513;51.444;7.196;2023-04-10T02:38:10;7.50;99.90
1049;DHT22;513;51.444;7.196;2023-04-10T02:40:36;7.60;99.90
1049;DHT22;513;51.444;7.196;2023-04-10T02:43:03;7.60;99.90
1049;DHT22;513;51.444;7.196;2023-04-10T02:45:29;7.60;99.90
1049;DHT22;513;51.444;7.196;2023-04-10T02:47:57;7.60;99.90
1049;DHT22;513;51.444;7.196;2023-04-10T02:50:24;7.60;99.90
1049;DHT22;513;51.444;7.196;2023-04-10T02:52:53;7.60;99.90
1049;DHT22;513;51.444;7.196;2023-04-10T02:55:22;7.60;99.90
1049;DHT22;513;51.444;7.196;2023-04-10T02:57:48;7.60;94.50
1049;DHT22;513;51.444;7.196;2023-04-10T03:00:15;7.60;99.90
1049;DHT22;513;51.444;7.196;2023-04-10T03:02:43;7.70;78.20
1049;DHT22;513;51.444;7.196;2023-04-10T03:05:10;7.70;71.60
1049;DHT22;513;51.444;7.196;2023-04-10T03:07:36;7.70;56.90
1049;DHT22;513;51.444;7.196;2023-04-10T03:10:03;7.70;38.40
1049;DHT22;513;51.444;7.196;2023-04-10T03:12:31;7.70;3.10
1049;DHT22;513;51.444;7.196;2023-04-10T03:14:58;7.70;3.50
1049;DHT22;513;51.444;7.196;2023-04-10T03:17:24;7.80;1.00
1049;DHT22;513;51.444;7.196;2023-04-10T03:19:51;7.80;1.00
1049;DHT22;513;51.444;7.196;2023-04-10T03:22:17;7.70;3.10
1049;DHT22;513;51.444;7.196;2023-04-10T03:24:44;7.70;3.80
1049;DHT22;513;51.444;7.196;2023-04-10T03:27:10;7.70;1.00
1049;DHT22;513;51.444;7.196;2023-04-10T03:29:38;7.70;1.00
1049;DHT22;513;51.444;7.196;2023-04-10T03:32:04;7.70;3.60
1049;DHT22;513;51.444;7.196;2023-04-10T03:34:31;7.70;1.00
1049;DHT22;513;51.444;7.196;2023-04-10T03:36:57;7.70;1.00
1049;DHT22;513;51.444;7.196;2023-04-10T03:39:24;7.70;1.00
1049;DHT22;513;51.444;7.196;2023-04-10T03:41:50;7.70;1.00
1049;DHT22;513;51.444;7.196;2023-04-10T03:44:17;7.70;1.00
1049;DHT22;513;51.444;7.196;2023-04-10T03:46:45;7.70;1.00
1049;DHT22;513;51.444;7.196;2023-04-10T03:49:11;7.80;1.00
1049;DHT22;513;51.444;7.196;2023-04-10T03:51:38;7.80;1.00
1049;DHT22;513;51.444;7.196;2023-04-10T03:54:04;7.80;1.00
1049;DHT22;513;51.444;7.196;2023-04-10T03:56:31;7.80;1.00
1049;DHT22;513;51.444;7.196;2023-04-10T03:58:57;7.80;1.00
1049;DHT22;513;51.444;7.196;2023-04-10T04:01:24;7.90;1.00
1049;DHT22;513;51.444;7.196;2023-04-10T04:03:51;7.80;1.00
1049;DHT22;513;51.444;7.196;2023-04-10T04:06:18;7.80;1.00
1049;DHT22;513;51.444;7.196;2023-04-10T04:08:44;7.80;1.00
1049;DHT22;513;51.444;7.196;2023-04-10T04:11:11;7.70;1.00
1049;DHT22;513;51.444;7.196;2023-04-10T04:13:37;7.80;1.00
1049;DHT22;513;51.444;7.196;2023-04-10T04:16:04;7.80;1.00
1049;DHT22;513;51.444;7.196;2023-04-10T04:18:31;7.90;1.00
1049;DHT22;513;51.444;7.196;2023-04-10T04:20:59;7.80;1.00
1049;DHT22;513;51.444;7.196;2023-04-10T04:23:25;7.80;1.00
1049;DHT22;513;51.444;7.196;2023-04-10T04:25:52;7.80;1.00
1049;DHT22;513;51.444;7.196;2023-04-10T04:28:20;7.80;1.00
1049;DHT22;513;51.444;7.196;2023-04-10T04:30:46;7.80;1.00
1049;DHT22;513;51.444;7.196;2023-04-10T04:33:13;7.80;1.00
1049;DHT22;513;51.444;7.196;2023-04-10T04:35:39;7.70;1.00
1049;DHT22;513;51.444;7.196;2023-04-10T04:38:07;7.70;1.00
1049;DHT22;513;51.444;7.196;2023-04-10T04:40:34;7.70;1.00
1049;DHT22;513;51.444;7.196;2023-04-10T04:43:00;7.70;1.00
1049;DHT22;513;51.444;7.196;2023-04-10T04:45:27;7.70;1.00
1049;DHT22;513;51.444;7.196;2023-04-10T04:47:55;7.60;1.00
1049;DHT22;513;51.444;7.196;2023-04-10T04:50:21;7.60;1.00
1049;DHT22;513;51.444;7.196;2023-04-10T04:52:48;7.60;1.00
1049;DHT22;513;51.444;7.196;2023-04-10T04:55:16;7.50;1.00
1049;DHT22;513;51.444;7.196;2023-04-10T04:57:42;7.50;1.00
1049;DHT22;513;51.444;7.196;2023-04-10T05:00:09;7.50;1.00
1049;DHT22;513;51.444;7.196;2023-04-10T05:02:36;7.40;1.00
1049;DHT22;513;51.444;7.196;2023-04-10T05:05:03;7.40;1.00
1049;DHT22;513;51.444;7.196;2023-04-10T05:07:29;7.40;1.00
1049;DHT22;513;51.444;7.196;2023-04-10T05:09:57;7.40;1.00
1049;DHT22;513;51.444;7.196;2023-04-10T05:12:25;7.30;1.00
1049;DHT22;513;51.444;7.196;2023-04-10T05:14:51;7.40;1.00
1049;DHT22;513;51.444;7.196;2023-04-10T05:17:18;7.40;1.00
1049;DHT22;513;51.444;7.196;2023-04-10T05:19:44;7.40;1.00
1049;DHT22;513;51.444;7.196;2023-04-10T05:22:11;7.40;1.00
1049;DHT22;513;51.444;7.196;2023-04-10T05:24:37;7.30;1.00
1049;DHT22;513;51.444;7.196;2023-04-10T05:27:04;7.30;1.00
1049;DHT22;513;51.444;7.196;2023-04-10T05:29:32;7.30;1.00
1049;DHT22;513;51.444;7.196;2023-04-10T05:31:58;7.40;1.00
1049;DHT22;513;51.444;7.196;2023-04-10T05:34:25;7.40;1.00
1049;DHT22;513;51.444;7.196;2023-04-10T05:36:51;7.40;1.00
1049;DHT22;513;51.444;7.196;2023-04-10T05:39:18;7.50;1.00
1049;DHT22;513;51.444;7.196;2023-04-10T05:41:44;7.50;1.00
1049;DHT22;513;51.444;7.196;2023-04-10T05:44:11;7.60;1.00
1049;DHT22;513;51.444;7.196;2023-04-10T05:46:38;7.60;1.00
1049;DHT22;513;51.444;7.196;2023-04-10T05:49:05;7.70;1.00
1049;DHT22;513;51.444;7.196;2023-04-10T05:51:31;7.70;1.00
1049;DHT22;513;51.444;7.196;2023-04-10T05:53:58;7.80;1.00
1049;DHT22;513;51.444;7.196;2023-04-10T05:56:25;7.90;1.00
1049;DHT22;513;51.444;7.196;2023-04-10T05:58:51;8.00;1.00
1049;DHT22;513;51.444;7.196;2023-04-10T06:01:18;8.20;1.00
1049;DHT22;513;51.444;7.196;2023-04-10T06:03:46;8.30;1.00
1049;DHT22;513;51.444;7.196;2023-04-10T06:06:12;8.40;1.00
1049;DHT22;513;51.444;7.196;2023-04-10T06:08:39;8.50;1.00
1049;DHT22;513;51.444;7.196;2023-04-10T06:11:05;8.60;1.00
1049;DHT22;513;51.444;7.196;2023-04-10T06:13:32;8.70;1.00
1049;DHT22;513;51.444;7.196;2023-04-10T06:15:58;8.80;1.00
1049;DHT22;513;51.444;7.196;2023-04-10T06:18:25;9.00;99.90
1049;DHT22;513;51.444;7.196;2023-04-10T06:20:53;9.10;99.90
1049;DHT22;513;51.444;7.196;2023-04-10T06:23:20;9.30;99.90
1049;DHT22;513;51.444;7.196;2023-04-10T06:25:47;9.40;99.90
1049;DHT22;513;51.444;7.196;2023-04-10T06:28:13;9.60;99.90
1049;DHT22;513;51.444;7.196;2023-04-10T06:30:40;9.70;99.90
1049;DHT22;513;51.444;7.196;2023-04-10T06:33:06;9.80;99.90
1049;DHT22;513;51.444;7.196;2023-04-10T06:35:33;9.80;99.90
1049;DHT22;513;51.444;7.196;2023-04-10T06:38:02;9.90;99.90
1049;DHT22;513;51.444;7.196;2023-04-10T06:40:28;9.90;99.90
1049;DHT22;513;51.444;7.196;2023-04-10T06:42:55;10.00;99.90
1049;DHT22;513;51.444;7.196;2023-04-10T06:45:21;10.10;99.90
1049;DHT22;513;51.444;7.196;2023-04-10T06:47:48;10.10;99.90
1049;DHT22;513;51.444;7.196;2023-04-10T06:50:14;10.20;99.90
1049;DHT22;513;51.444;7.196;2023-04-10T06:52:41;10.30;99.90
1049;DHT22;513;51.444;7.196;2023-04-10T06:55:09;10.40;99.90
1049;DHT22;513;51.444;7.196;2023-04-10T06:57:37;10.40;99.90
1049;DHT22;513;51.444;7.196;2023-04-10T07:00:04;10.50;99.90
1049;DHT22;513;51.444;7.196;2023-04-10T07:02:30;10.60;99.90
1049;DHT22;513;51.444;7.196;2023-04-10T07:04:57;10.70;99.90
1049;DHT22;513;51.444;7.196;2023-04-10T07:07:23;10.90;99.90
1049;DHT22;513;51.444;7.196;2023-04-10T07:09:50;11.10;99.90
1049;DHT22;513;51.444;7.196;2023-04-10T07:12:18;11.20;99.90
1049;DHT22;513;51.444;7.196;2023-04-10T07:14:45;11.40;99.90
1049;DHT22;513;51.444;7.196;2023-04-10T07:17:11;11.60;99.90
1049;DHT22;513;51.444;7.196;2023-04-10T07:19:38;11.80;99.90
1049;DHT22;513;51.444;7.196;2023-04-10T07:22:04;11.90;99.90
1049;DHT22;513;51.444;7.196;2023-04-10T07:24:31;11.90;99.90
1049;DHT22;513;51.444;7.196;2023-04-10T07:26:58;11.90;99.90
1049;DHT22;513;51.444;7.196;2023-04-10T07:29:27;11.80;99.90
1049;DHT22;513;51.444;7.196;2023-04-10T07:31:53;11.90;99.90
1049;DHT22;513;51.444;7.196;2023-04-10T07:34:20;12.00;99.90
1049;DHT22;513;51.444;7.196;2023-04-10T07:36:46;11.90;99.90
1049;DHT22;513;51.444;7.196;2023-04-10T07:39:13;11.90;99.90
1049;DHT22;513;51.444;7.196;2023-04-10T07:41:39;12.10;99.90
1049;DHT22;513;51.444;7.196;2023-04-10T07:44:06;12.10;99.90
1049;DHT22;513;51.444;7.196;2023-04-10T07:46:34;12.20;99.90
1049;DHT22;513;51.444;7.196;2023-04-10T07:49:00;12.30;99.90
1049;DHT22;513;51.444;7.196;2023-04-10T07:51:27;12.50;99.90
1049;DHT22;513;51.444;7.196;2023-04-10T07:53:54;12.60;99.90
1049;DHT22;513;51.444;7.196;2023-04-10T07:56:22;12.40;99.90
1049;DHT22;513;51.444;7.196;2023-04-10T07:58:49;12.50;99.90
1049;DHT22;513;51.444;7.196;2023-04-10T08:01:16;12.50;99.90
1049;DHT22;513;51.444;7.196;2023-04-10T08:03:44;12.60;99.90
1049;DHT22;513;51.444;7.196;2023-04-10T08:06:11;12.70;99.90
1049;DHT22;513;51.444;7.196;2023-04-10T08:08:38;12.70;99.90
1049;DHT22;513;51.444;7.196;2023-04-10T08:11:06;12.70;99.90
1049;DHT22;513;51.444;7.196;2023-04-10T08:13:32;12.70;99.90
1049;DHT22;513;51.444;7.196;2023-04-10T08:15:59;12.70;99.90
1049;DHT22;513;51.444;7.196;2023-04-10T08:18:26;12.80;99.90
1049;DHT22;513;51.444;7.196;2023-04-10T08:20:53;12.90;99.90
1049;DHT22;513;51.444;7.196;2023-04-10T08:23:20;13.10;99.90
1049;DHT22;513;51.444;7.196;2023-04-10T08:25:46;13.30;99.90
1049;DHT22;513;51.444;7.196;2023-04-10T08:28:13;13.40;99.90
1049;DHT22;513;51.444;7.196;2023-04-10T08:30:39;13.50;99.90
1049;DHT22;513;51.444;7.196;2023-04-10T08:33:06;13.60;99.90
1049;DHT22;513;51.444;7.196;2023-04-10T08:35:32;13.70;99.90
1049;DHT22;513;51.444;7.196;2023-04-10T08:38:00;13.80;99.90
1049;DHT22;513;51.444;7.196;2023-04-10T08:40:26;14.00;99.90
1049;DHT22;513;51.444;7.196;2023-04-10T08:42:53;14.20;99.90
1049;DHT22;513;51.444;7.196;2023-04-10T08:45:21;14.20;99.90
1049;DHT22;513;51.444;7.196;2023-04-10T08:47:48;14.20;99.90
1049;DHT22;513;51.444;7.196;2023-04-10T08:50:16;14.40;99.90
1049;DHT22;513;51.444;7.196;2023-04-10T08:52:44;14.60;99.90
1049;DHT22;513;51.444;7.196;2023-04-10T08:55:12;14.60;99.90
1049;DHT22;513;51.444;7.196;2023-04-10T08:57:38;14.80;99.90
1049;DHT22;513;51.444;7.196;2023-04-10T09:00:06;14.80;99.90
1049;DHT22;513;51.444;7.196;2023-04-10T09:02:32;14.80;99.90
1049;DHT22;513;51.444;7.196;2023-04-10T09:04:59;14.90;99.90
1049;DHT22;513;51.444;7.196;2023-04-10T09:07:28;14.70;99.90
1049;DHT22;513;51.444;7.196;2023-04-10T09:09:55;14.50;99.90
1049;DHT22;513;51.444;7.196;2023-04-10T09:12:23;14.60;99.90
1049;DHT22;513;51.444;7.196;2023-04-10T09:14:49;14.50;99.90
1049;DHT22;513;51.444;7.196;2023-04-10T09:17:18;14.40;99.90
1049;DHT22;513;51.444;7.196;2023-04-10T09:19:45;14.40;99.90
1049;DHT22;513;51.444;7.196;2023-04-10T09:22:12;14.50;99.90
1049;DHT22;513;51.444;7.196;2023-04-10T09:24:39;14.60;99.90
1049;DHT22;513;51.444;7.196;2023-04-10T09:27:06;14.70;99.90
1049;DHT22;513;51.444;7.196;2023-04-10T09:29:43;14.80;99.90
1049;DHT22;513;51.444;7.196;2023-04-10T09:32:12;14.80;99.90
1049;DHT22;513;51.444;7.196;2023-04-10T09:34:51;14.90;99.90
1049;DHT22;513;51.444;7.196;2023-04-10T09:37:19;15.00;99.90
1049;DHT22;513;51.444;7.196;2023-04-10T09:39:46;14.90;99.90
1049;DHT22;513;51.444;7.196;2023-04-10T09:42:13;15.00;99.90
1049;DHT22;513;51.444;7.196;2023-04-10T09:44:40;15.20;99.90
1049;DHT22;513;51.444;7.196;2023-04-10T09:47:15;15.30;99.90
1049;DHT22;513;51.444;7.196;2023-04-10T09:49:45;15.30;99.90
1049;DHT22;513;51.444;7.196;2023-04-10T09:52:18;15.20;99.90
1049;DHT22;513;51.444;7.196;2023-04-10T09:54:45;15.10;99.90
1049;DHT22;513;51.444;7.196;2023-04-10T09:57:12;15.10;99.90
1049;DHT22;513;51.444;7.196;2023-04-10T09:59:40;15.40;99.90
1049;DHT22;513;51.444;7.196;2023-04-10T10:02:09;15.40;99.90
1049;DHT22;513;51.444;7.196;2023-04-10T10:04:37;15.20;99.90
1049;DHT22;513;51.444;7.196;2023-04-10T10:07:04;15.20;99.90
1049;DHT22;513;51.444;7.196;2023-04-10T10:09:31;15.30;99.90
1049;DHT22;513;51.444;7.196;2023-04-10T10:11:57;15.10;99.90
1049;DHT22;513;51.444;7.196;2023-04-10T10:14:25;15.20;99.90
1049;DHT22;513;51.444;7.196;2023-04-10T10:16:53;15.30;99.90
1049;DHT22;513;51.444;7.196;2023-04-10T10:19:22;15.20;99.90
1049;DHT22;513;51.444;7.196;2023-04-10T10:21:51;15.20;99.90
1049;DHT22;513;51.444;7.196;2023-04-10T10:24:19;15.20;99.90
1049;DHT22;513;51.444;7.196;2023-04-10T10:26:46;15.20;99.90
1049;DHT22;513;51.444;7.196;2023-04-10T10:29:14;15.30;99.90
1049;DHT22;513;51.444;7.196;2023-04-10T10:31:42;15.50;99.90
1049;DHT22;513;51.444;7.196;2023-04-10T10:34:09;15.50;99.90
1049;DHT22;513;51.444;7.196;2023-04-10T10:36:36;15.40;99.90
1049;DHT22;513;51.444;7.196;2023-04-10T10:41:50;15.50;99.90
1049;DHT22;513;51.444;7.196;2023-04-10T10:44:22;15.60;99.90
1049;DHT22;513;51.444;7.196;2023-04-10T10:46:56;15.80;99.90
1049;DHT22;513;51.444;7.196;2023-04-10T10:52:07;16.20;99.90
1049;DHT22;513;51.444;7.196;2023-04-10T10:54:34;16.20;99.90
1049;DHT22;513;51.444;7.196;2023-04-10T10:57:02;16.20;99.90
1049;DHT22;513;51.444;7.196;2023-04-10T10:59:52;16.20;99.90
1049;DHT22;513;51.444;7.196;2023-04-10T11:02:19;16.10;99.90
1049;DHT22;513;51.444;7.196;2023-04-10T11:04:46;16.20;99.90
1049;DHT22;513;51.444;7.196;2023-04-10T11:07:13;16.30;99.90
1049;DHT22;513;51.444;7.196;2023-04-10T11:09:48;16.20;99.90
1049;DHT22;513;51.444;7.196;2023-04-10T11:12:17;16.30;99.90
1049;DHT22;513;51.444;7.196;2023-04-10T11:14:44;16.40;99.90
1049;DHT22;513;51.444;7.196;2023-04-10T11:20:02;16.40;99.90
1049;DHT22;513;51.444;7.196;2023-04-10T11:22:29;16.50;99.90
1049;DHT22;513;51.444;7.196;2023-04-10T11:24:57;16.50;99.90
1049;DHT22;513;51.444;7.196;2023-04-10T11:27:38;16.50;99.90
1049;DHT22;513;51.444;7.196;2023-04-10T11:32:46;16.80;99.90
1049;DHT22;513;51.444;7.196;2023-04-10T11:35:17;16.90;99.90
1049;DHT22;513;51.444;7.196;2023-04-10T11:37:44;16.80;99.90
1049;DHT22;513;51.444;7.196;2023-04-10T11:40:11;16.80;99.90
1049;DHT22;513;51.444;7.196;2023-04-10T11:42:39;16.70;99.90
1049;DHT22;513;51.444;7.196;2023-04-10T11:45:22;16.80;99.90
1049;DHT22;513;51.444;7.196;2023-04-10T11:47:49;16.70;99.90
1049;DHT22;513;51.444;7.196;2023-04-10T11:50:16;16.80;99.90
1049;DHT22;513;51.444;7.196;2023-04-10T11:52:43;16.80;99.90
1049;DHT22;513;51.444;7.196;2023-04-10T11:55:09;16.70;99.90
1049;DHT22;513;51.444;7.196;2023-04-10T11:57:36;16.80;99.90
1049;DHT22;513;51.444;7.196;2023-04-10T12:00:05;16.90;99.90
1049;DHT22;513;51.444;7.196;2023-04-10T12:02:31;16.70;99.90
1049;DHT22;513;51.444;7.196;2023-04-10T12:04:58;16.70;99.90
1049;DHT22;513;51.444;7.196;2023-04-10T12:07:25;16.70;99.90
1049;DHT22;513;51.444;7.196;2023-04-10T12:09:54;16.80;99.90
1049;DHT22;513;51.444;7.196;2023-04-10T12:12:25;17.00;99.90
1049;DHT22;513;51.444;7.196;2023-04-10T12:14:59;17.10;99.90
1049;DHT22;513;51.444;7.196;2023-04-10T12:17:27;16.80;99.90
1049;DHT22;513;51.444;7.196;2023-04-10T12:19:54;17.10;99.90
1049;DHT22;513;51.444;7.196;2023-04-10T12:22:20;17.10;99.90
1049;DHT22;513;51.444;7.196;2023-04-10T12:24:48;17.00;99.90
1049;DHT22;513;51.444;7.196;2023-04-10T12:27:15;16.90;99.90
1049;DHT22;513;51.444;7.196;2023-04-10T12:29:42;17.20;99.90
1049;DHT22;513;51.444;7.196;2023-04-10T12:32:09;17.30;99.90
1049;DHT22;513;51.444;7.196;2023-04-10T12:42:10;17.40;99.90
1049;DHT22;513;51.444;7.196;2023-04-10T12:44:48;17.50;99.90
1049;DHT22;513;51.444;7.196;2023-04-10T12:47:15;17.70;99.90
1049;DHT22;513;51.444;7.196;2023-04-10T12:49:41;17.80;99.90
1049;DHT22;513;51.444;7.196;2023-04-10T12:52:08;17.90;99.90
1049;DHT22;513;51.444;7.196;2023-04-10T12:54:34;17.80;99.90
1049;DHT22;513;51.444;7.196;2023-04-10T12:57:01;17.70;99.90
1049;DHT22;513;51.444;7.196;2023-04-10T12:59:30;17.60;99.90
1049;DHT22;513;51.444;7.196;2023-04-10T13:01:56;17.80;99.90
1049;DHT22;513;51.444;7.196;2023-04-10T13:04:23;17.80;99.90
1049;DHT22;513;51.444;7.196;2023-04-10T13:06:50;17.60;99.90
1049;DHT22;513;51.444;7.196;2023-04-10T13:09:17;17.50;99.90
1049;DHT22;513;51.444;7.196;2023-04-10T13:11:44;17.50;99.90
1049;DHT22;513;51.444;7.196;2023-04-10T13:14:10;17.50;99.90
1049;DHT22;513;51.444;7.196;2023-04-10T13:16:38;17.30;99.90
1049;DHT22;513;51.444;7.196;2023-04-10T13:19:04;17.30;99.90
1049;DHT22;513;51.444;7.196;2023-04-10T13:21:31;17.40;99.90
1049;DHT22;513;51.444;7.196;2023-04-10T13:23:57;17.40;99.90
1049;DHT22;513;51.444;7.196;2023-04-10T13:26:24;17.30;99.90
1049;DHT22;513;51.444;7.196;2023-04-10T13:28:50;17.40;99.90
1049;DHT22;513;51.444;7.196;2023-04-10T13:31:17;17.30;99.90
1049;DHT22;513;51.444;7.196;2023-04-10T13:33:45;17.20;99.90
1049;DHT22;513;51.444;7.196;2023-04-10T13:36:12;17.30;99.90
1049;DHT22;513;51.444;7.196;2023-04-10T13:38:39;17.30;99.90
1049;DHT22;513;51.444;7.196;2023-04-10T13:41:05;17.20;99.90
1049;DHT22;513;51.444;7.196;2023-04-10T13:43:32;17.10;99.90
1049;DHT22;513;51.444;7.196;2023-04-10T13:45:58;17.10;99.90
1049;DHT22;513;51.444;7.196;2023-04-10T13:48:25;17.10;99.90
1049;DHT22;513;51.444;7.196;2023-04-10T13:50:53;17.10;99.90
1049;DHT22;513;51.444;7.196;2023-04-10T13:53:19;17.30;99.90
1049;DHT22;513;51.444;7.196;2023-04-10T13:55:46;17.20;99.90
1049;DHT22;513;51.444;7.196;2023-04-10T13:58:14;17.30;99.90
1049;DHT22;513;51.444;7.196;2023-04-10T14:00:41;17.30;99.90
1049;DHT22;513;51.444;7.196;2023-04-10T14:03:08;17.30;99.90
1049;DHT22;513;51.444;7.196;2023-04-10T14:05:36;17.00;99.90
1049;DHT22;513;51.444;7.196;2023-04-10T14:08:04;16.90;99.90
1049;DHT22;513;51.444;7.196;2023-04-10T14:10:30;17.00;99.90
1049;DHT22;513;51.444;7.196;2023-04-10T14:12:57;16.90;99.90
1049;DHT22;513;51.444;7.196;2023-04-10T14:15:23;16.80;99.90
1049;DHT22;513;51.444;7.196;2023-04-10T14:17:50;16.90;99.90
1049;DHT22;513;51.444;7.196;2023-04-10T14:20:16;17.00;99.90
1049;DHT22;513;51.444;7.196;2023-04-10T14:22:43;17.00;99.90
1049;DHT22;513;51.444;7.196;2023-04-10T14:25:12;17.00;99.90
1049;DHT22;513;51.444;7.196;2023-04-10T14:27:41;16.90;99.90
1049;DHT22;513;51.444;7.196;2023-04-10T14:30:07;16.80;99.90
1049;DHT22;513;51.444;7.196;2023-04-10T14:32:34;16.70;99.90
1049;DHT22;513;51.444;7.196;2023-04-10T14:35:00;16.80;99.90
1049;DHT22;513;51.444;7.196;2023-04-10T14:37:27;16.70;99.90
1049;DHT22;513;51.444;7.196;2023-04-10T14:39:54;16.60;99.90
1049;DHT22;513;51.444;7.196;2023-04-10T14:42:22;16.60;99.90
1049;DHT22;513;51.444;7.196;2023-04-10T14:44:48;16.60;99.90
1049;DHT22;513;51.444;7.196;2023-04-10T14:47:15;16.60;99.90
1049;DHT22;513;51.444;7.196;2023-04-10T14:49:41;16.50;99.90
1049;DHT22;513;51.444;7.196;2023-04-10T14:52:08;16.50;99.90
1049;DHT22;513;51.444;7.196;2023-04-10T14:54:34;16.50;99.90
1049;DHT22;513;51.444;7.196;2023-04-10T14:57:01;16.40;99.90
1049;DHT22;513;51.444;7.196;2023-04-10T14:59:29;16.40;99.90
1049;DHT22;513;51.444;7.196;2023-04-10T15:01:56;16.40;99.90
1049;DHT22;513;51.444;7.196;2023-04-10T15:04:23;16.40;99.90
1049;DHT22;513;51.444;7.196;2023-04-10T15:06:49;16.40;99.90
1049;DHT22;513;51.444;7.196;2023-04-10T15:09:16;16.30;99.90
1049;DHT22;513;51.444;7.196;2023-04-10T15:11:43;16.30;99.90
1049;DHT22;513;51.444;7.196;2023-04-10T15:14:09;16.30;99.90
1049;DHT22;513;51.444;7.196;2023-04-10T15:16:37;16.30;99.90
1049;DHT22;513;51.444;7.196;2023-04-10T15:19:04;16.30;99.90
1049;DHT22;513;51.444;7.196;2023-04-10T15:21:30;16.20;99.90
1049;DHT22;513;51.444;7.196;2023-04-10T15:23:57;16.20;99.90
1049;DHT22;513;51.444;7.196;2023-04-10T15:26:23;16.20;99.90
1049;DHT22;513;51.444;7.196;2023-04-10T15:28:50;16.20;99.90
1049;DHT22;513;51.444;7.196;2023-04-10T15:31:19;16.20;99.90
1049;DHT22;513;51.444;7.196;2023-04-10T15:33:49;16.30;99.90
1049;DHT22;513;51.444;7.196;2023-04-10T15:36:15;16.20;99.90
1049;DHT22;513;51.444;7.196;2023-04-10T15:38:42;16.30;99.90
1049;DHT22;513;51.444;7.196;2023-04-10T15:41:09;16.30;99.90
1049;DHT22;513;51.444;7.196;2023-04-10T15:43:35;16.30;99.90
1049;DHT22;513;51.444;7.196;2023-04-10T15:46:02;16.30;99.90
1049;DHT22;513;51.444;7.196;2023-04-10T15:48:29;16.40;99.90
1049;DHT22;513;51.444;7.196;2023-04-10T15:50:57;16.40;99.90
1049;DHT22;513;51.444;7.196;2023-04-10T15:53:24;16.50;99.90
1049;DHT22;513;51.444;7.196;2023-04-10T15:55:50;16.50;99.90
1049;DHT22;513;51.444;7.196;2023-04-10T15:58:17;16.60;99.90
1049;DHT22;513;51.444;7.196;2023-04-10T16:00:43;16.60;99.90
1049;DHT22;513;51.444;7.196;2023-04-10T16:03:10;16.60;99.90
1049;DHT22;513;51.444;7.196;2023-04-10T16:05:36;16.70;99.90
1049;DHT22;513;51.444;7.196;2023-04-10T16:08:04;16.70;99.90
1049;DHT22;513;51.444;7.196;2023-04-10T16:10:31;16.80;99.90
1049;DHT22;513;51.444;7.196;2023-04-10T16:12:57;16.80;99.90
1049;DHT22;513;51.444;7.196;2023-04-10T16:15:28;16.80;99.90
1049;DHT22;513;51.444;7.196;2023-04-10T16:17:55;16.90;99.90
1049;DHT22;513;51.444;7.196;2023-04-10T16:20:22;16.80;99.90
1049;DHT22;513;51.444;7.196;2023-04-10T16:22:48;16.70;99.90
1049;DHT22;513;51.444;7.196;2023-04-10T16:25:16;16.70;99.90
1049;DHT22;513;51.444;7.196;2023-04-10T16:27:42;16.60;99.90
1049;DHT22;513;51.444;7.196;2023-04-10T16:30:10;16.60;99.90
1049;DHT22;513;51.444;7.196;2023-04-10T16:32:37;16.40;99.90
1049;DHT22;513;51.444;7.196;2023-04-10T16:35:04;16.40;99.90
1049;DHT22;513;51.444;7.196;2023-04-10T16:37:31;16.20;99.90
1049;DHT22;513;51.444;7.196;2023-04-10T16:39:57;16.20;99.90
1049;DHT22;513;51.444;7.196;2023-04-10T16:42:25;16.10;99.90
1049;DHT22;513;51.444;7.196;2023-04-10T16:44:52;16.20;99.90
1049;DHT22;513;51.444;7.196;2023-04-10T16:47:19;16.10;99.90